METAR Analyzer

一覧表示

Hello, Guest. (Login)

RJGG/NGO  -  名古屋/中部

観測日時
2022-09-30 07:00 (UTC) (26分前)
気温
25
露点
19
湿数
6
相対湿度
69.4%
QNH
1014.2hPa
推定現地気圧
1013.7hPa
推定海面気圧
1014.2hPa
体感温度
19.1
(無風時)
24.4
HI
25.4
気温前日比
+1
体感温度前日比
-0.2
HI前日比
+1
水平視程
>10000m
鉛直視程
データなし
雲底高度
No dense clouds
V/I
VMC (VFR)
RVR
No RVR data
卓越風
7kt from 190°
ガスト
No gust
降水
報告なし
その他の天気
報告なし
少しの(1/8) 積雲 @ 2500ft AGL

RJGG 300700Z 19007KT 9999 FEW025 25/19 Q1014 NOSIG RMK 1CU025 A2995

RJNA/NKM  -  名古屋/小牧

観測日時
2022-09-30 07:00 (UTC) (26分前)
気温
28
露点
17
湿数
11
相対湿度
51.2%
QNH
1013.9hPa
推定現地気圧
1012.2hPa
推定海面気圧
1013.8hPa
体感温度
21.5
(無風時)
25.4
HI
28.6
気温前日比
+1
体感温度前日比
+0.1
HI前日比
+1.1
水平視程
>10000m
鉛直視程
データなし
雲底高度
No dense clouds
V/I
VMC (VFR)
RVR
No RVR data
卓越風
8kt from 220° (190° ~ 250°)
ガスト
No gust
降水
報告なし
その他の天気
報告なし
少しの(1/8) 積雲 @ 2000ft AGL

RJNA 300700Z 22008KT 190V250 9999 FEW020 28/17 Q1014 RMK 1CU020 A2994

RJNS/FSZ  -  静岡

観測日時
2022-09-30 07:00 (UTC) (26分前)
気温
25
露点
15
湿数
10
相対湿度
53.8%
QNH
1014hPa
推定現地気圧
998.2hPa
推定海面気圧
1013.4hPa
体感温度
19.9
(無風時)
23.4
HI
25
気温前日比
+3
体感温度前日比
+1.6
HI前日比
+2.3
水平視程
>10000m
鉛直視程
データなし
雲底高度
No dense clouds
V/I
VMC (VFR)
RVR
No RVR data
卓越風
3kt from 90° (30° ~ 120°)
ガスト
No gust
降水
報告なし
その他の天気
報告なし
少しの雲 @ 3000ft AGL

RJNS 300700Z 09003KT 030V120 9999 FEW030 25/15 Q1014

RJAT  -  滝ヶ原駐屯地

観測日時
2022-09-30 07:00 (UTC) (26分前)
気温
22
露点
データなし
湿数
データなし
相対湿度
データなし
QNH
1018.6hPa
推定現地気圧
1018.6hPa
推定海面気圧
1018.6hPa
体感温度
データなし
HI
データなし
気温前日比
+4
体感温度前日比
データなし
HI前日比
データなし
水平視程
>10000m
鉛直視程
データなし
雲底高度
No dense clouds
V/I
VMC (VFR)
RVR
No RVR data
卓越風
7kt from 60° (30° ~ 100°)
ガスト
No gust
降水
報告なし
その他の天気
報告なし
少しの(1/8) 積雲 @ 1500ft AGL

RJAT 300700Z 06007KT 030V100 9999 FEW015 22/// Q1018 RMK 1CU015 A3008

RJNY  -  静浜基地

観測日時
2022-09-30 07:00 (UTC) (26分前)
気温
26
露点
17
湿数
9
相対湿度
57.6%
QNH
1014.6hPa
推定現地気圧
1013.8hPa
推定海面気圧
1014.6hPa
体感温度
21.8
(無風時)
24.4
HI
26.2
気温前日比
+3
体感温度前日比
+3.3
HI前日比
+2.7
水平視程
>10000m
鉛直視程
データなし
雲底高度
No dense clouds
V/I
VMC (VFR)
RVR
No RVR data
卓越風
2kt from VRB
ガスト
No gust
降水
報告なし
その他の天気
報告なし
少しの(1/8) 積雲 @ 3000ft AGL

RJNY 300700Z VRB02KT 9999 FEW030 26/17 Q1014 RMK 1CU030 A2996

RJNH  -  浜松基地

観測日時
2022-09-30 07:00 (UTC) (26分前)
気温
27
露点
16
湿数
11
相対湿度
51%
QNH
1014.2hPa
推定現地気圧
1008.7hPa
推定海面気圧
1014.0hPa
体感温度
20.8
(無風時)
24.7
HI
27.5
気温前日比
+3
体感温度前日比
+2.7
HI前日比
+3.1
水平視程
>10000m
鉛直視程
データなし
雲底高度
No dense clouds
V/I
VMC (VFR)
RVR
No RVR data
卓越風
6kt from 130° (90° ~ 170°)
ガスト
No gust
降水
報告なし
その他の天気
報告なし
少しの(1/8) 積雲 @ 3000ft AGL

RJNH 300700Z 13006KT 090V170 9999 FEW030 27/16 Q1014 RMK 1CU030 A2995

RJNG/QGU  -  岐阜基地

観測日時
2022-09-30 07:00 (UTC) (26分前)
気温
28
露点
16
湿数
12
相対湿度
48.1%
QNH
1013.9hPa
推定現地気圧
1009.2hPa
推定海面気圧
1013.7hPa
体感温度
22.6
(無風時)
25.2
HI
28.3
気温前日比
+1
体感温度前日比
-0.5
HI前日比
+0.8
水平視程
>10000m
鉛直視程
データなし
雲底高度
No dense clouds
V/I
VMC (VFR)
RVR
No RVR data
卓越風
3kt from 240° (200° ~ 300°)
ガスト
No gust
降水
報告なし
その他の天気
報告なし
少しの(1/8) 積雲 @ 3500ft AGL

RJNG 300700Z 24003KT 200V300 9999 FEW035 28/16 Q1014 RMK 1CU035 A2994

RJOE  -  明野駐屯地

観測日時
2022-09-30 07:00 (UTC) (26分前)
気温
27
露点
16
湿数
11
相対湿度
51%
QNH
1014.2hPa
推定現地気圧
1013.5hPa
推定海面気圧
1014.2hPa
体感温度
20.6
(無風時)
24.7
HI
27.5
気温前日比
+2
体感温度前日比
+0.6
HI前日比
+2.2
水平視程
>10000m
鉛直視程
データなし
雲底高度
No dense clouds
V/I
VMC (VFR)
RVR
No RVR data
卓越風
7kt from 100°
ガスト
No gust
降水
報告なし
その他の天気
報告なし
少しの(1/8) 積雲 @ 3000ft AGL

RJOE 300700Z 10007KT 9999 FEW030 27/16 Q1014 RMK 1CU030 A2995

331.6msec